Portada
METAR-TAF:

METAR-TAF

Aeropuertos :

El Salvador, El Salvador

Aeropuerto Internacional de El Salvador

latitud: 13-26N, longitud: 089-03W, altitud: 25 m

Observación

El informe se hizo hace 1 hora y 4 minutos, a las 16:50 UTC
Viento 6 kt del sur, variando entre este-sureste y sur-suroeste
Temperatura 34°C
Humedad 47%
Presión 1010 hPa
Escasas nubes a una altura de 2700 ft

METAR: MSLP 281650Z 17006KT 110V210 FEW027 34/21 Q1010 A2982 NOSIG

Hora: 11:54 (17:54 UTC)

Pronóstico

El informe se hizo hace 2 horas y 29 minutos, a las 15:25 UTC
Pronóstico válido del 28 a las 18 UTC al 29 a las 18 UTC
Viento 10 kt del suroeste
Visibilidad 10 km o más
Escasas nubes a una altura de 3300 ft
A partir de las 29 a las 0000 UTC
Viento 5 kt con dirección variable
Visibilidad 10 km o más
Escasas nubes a una altura de 2300 ft

TAF: MSLP 281525Z 2818/2918 22010KT 9999 FEW033 TX34/2818Z TN23/2911Z FM290000 VRB05KT 9999 FEW023

Observaciones y pronósticos meteorológicos de más de 4000 aeropuertos (mensajes METAR y TAF).

Los puntos amarillos y rojos representan las estaciones disponibles.

Ponga el ratón en el punto deseado para ver el nombre de la estación.

Haga clic para ver las observaciones y los pronósticos meteorológicos.

Para cambiar el mapa : haga clic en los botones verdes con una cruz de color negro para hacer un zoom, en el botón verde con un guión para alejar o en las flechas verdes para mapas adyacentes.


METAR-TAF: